createdAt,value
2017-10-24T00:00:04.403Z,0
2017-10-24T00:00:44.927Z,0
2017-10-24T00:01:25.533Z,0
2017-10-24T00:02:06.093Z,0
2017-10-24T00:02:46.682Z,0
2017-10-24T00:03:27.180Z,0
2017-10-24T00:04:07.775Z,0
2017-10-24T00:04:48.294Z,0
2017-10-24T00:05:28.800Z,0
2017-10-24T00:06:09.373Z,0
2017-10-24T00:06:49.923Z,0
2017-10-24T00:07:30.472Z,0
2017-10-24T00:08:11.070Z,0
2017-10-24T00:08:51.622Z,0
2017-10-24T00:09:32.130Z,0
2017-10-24T00:10:12.757Z,0
2017-10-24T00:10:53.197Z,0
2017-10-24T00:11:33.798Z,0
2017-10-24T00:12:14.353Z,0
2017-10-24T00:12:54.886Z,0
2017-10-24T00:13:35.400Z,0
2017-10-24T00:14:16.043Z,0
2017-10-24T00:14:56.597Z,0
2017-10-24T00:15:37.109Z,0
2017-10-24T00:16:17.671Z,0
2017-10-24T00:16:58.230Z,0
2017-10-24T00:17:38.907Z,0
2017-10-24T00:18:19.459Z,0
2017-10-24T00:19:00.004Z,0
2017-10-24T00:19:40.623Z,0
2017-10-24T00:20:21.102Z,0
2017-10-24T00:21:01.596Z,0
2017-10-24T00:21:42.210Z,0
2017-10-24T00:22:22.774Z,0
2017-10-24T00:23:03.275Z,0
2017-10-24T00:23:43.901Z,0
2017-10-24T00:24:24.383Z,0
2017-10-24T00:25:04.914Z,0
2017-10-24T00:25:45.437Z,0
2017-10-24T00:26:26.030Z,0
2017-10-24T00:27:06.523Z,0
2017-10-24T00:27:47.057Z,0
2017-10-24T00:28:27.584Z,0
2017-10-24T00:29:08.132Z,0
2017-10-24T00:29:48.647Z,0
2017-10-24T00:30:29.221Z,0
2017-10-24T00:31:09.739Z,0
2017-10-24T00:31:50.323Z,0
2017-10-24T00:32:30.838Z,0
2017-10-24T00:33:11.372Z,0
2017-10-24T00:33:51.872Z,0
2017-10-24T00:34:32.449Z,0
2017-10-24T00:35:12.950Z,0
2017-10-24T00:35:53.480Z,0
2017-10-24T00:36:34.004Z,0
2017-10-24T00:37:14.542Z,0
2017-10-24T00:37:55.065Z,0
2017-10-24T00:38:35.611Z,0
2017-10-24T00:39:16.136Z,0
2017-10-24T00:39:56.685Z,0
2017-10-24T00:40:37.167Z,0
2017-10-24T00:41:17.720Z,0
2017-10-24T00:41:58.288Z,0
2017-10-24T00:42:38.807Z,0
2017-10-24T00:43:19.370Z,0
2017-10-24T00:43:59.818Z,0
2017-10-24T00:44:40.343Z,0
2017-10-24T00:45:20.875Z,0
2017-10-24T00:46:02.339Z,0
2017-10-24T00:46:42.011Z,0
2017-10-24T00:47:22.564Z,0
2017-10-24T00:48:03.111Z,0
2017-10-24T00:48:44.700Z,0
2017-10-24T00:49:25.209Z,0
2017-10-24T00:50:05.707Z,0
2017-10-24T00:50:46.295Z,0
2017-10-24T00:51:26.817Z,0
2017-10-24T00:52:07.358Z,0
2017-10-24T00:52:47.930Z,0
2017-10-24T00:53:28.440Z,0
2017-10-24T00:54:08.943Z,0
2017-10-24T00:54:49.511Z,0
2017-10-24T00:55:30.043Z,0
2017-10-24T00:56:10.528Z,0
2017-10-24T00:56:51.085Z,0
2017-10-24T00:57:31.631Z,0
2017-10-24T00:58:12.209Z,0
2017-10-24T00:58:52.757Z,0
2017-10-24T00:59:33.224Z,0
2017-10-24T01:00:13.759Z,0
2017-10-24T01:00:54.331Z,0
2017-10-24T01:01:34.847Z,0
2017-10-24T01:02:15.376Z,0
2017-10-24T01:02:55.982Z,0
2017-10-24T01:03:36.483Z,0
2017-10-24T01:04:17.004Z,0
2017-10-24T01:04:57.534Z,0
2017-10-24T01:05:38.068Z,0
2017-10-24T01:06:18.626Z,0
2017-10-24T01:06:59.129Z,0
2017-10-24T01:07:39.658Z,0
2017-10-24T01:08:20.222Z,0
2017-10-24T01:09:00.757Z,0
2017-10-24T01:09:41.332Z,0
2017-10-24T01:10:21.858Z,0
2017-10-24T01:11:02.599Z,0
2017-10-24T01:11:43.133Z,0
2017-10-24T01:12:23.692Z,0
2017-10-24T01:13:04.258Z,0
2017-10-24T01:13:44.785Z,0
2017-10-24T01:14:25.280Z,0
2017-10-24T01:15:05.845Z,0
2017-10-24T01:15:46.371Z,0
2017-10-24T01:16:26.924Z,0
2017-10-24T01:17:07.513Z,0
2017-10-24T01:17:47.997Z,0
2017-10-24T01:18:28.570Z,0
2017-10-24T01:19:09.067Z,0
2017-10-24T01:19:49.634Z,0
2017-10-24T01:20:30.196Z,0
2017-10-24T01:21:10.701Z,0
2017-10-24T01:21:51.305Z,0
2017-10-24T01:22:31.829Z,0
2017-10-24T01:23:12.331Z,0
2017-10-24T01:23:52.863Z,0
2017-10-24T01:24:33.389Z,0
2017-10-24T01:25:13.974Z,0
2017-10-24T01:25:54.498Z,0
2017-10-24T01:26:34.998Z,0
2017-10-24T01:27:15.566Z,0
2017-10-24T01:27:56.114Z,0
2017-10-24T01:28:36.729Z,0
2017-10-24T01:29:17.225Z,0
2017-10-24T01:29:57.806Z,0
2017-10-24T01:30:38.314Z,0
2017-10-24T01:31:18.866Z,0
2017-10-24T01:31:59.388Z,0
2017-10-24T01:32:39.966Z,0
2017-10-24T01:33:20.436Z,0
2017-10-24T01:34:00.965Z,0
2017-10-24T01:34:41.473Z,0
2017-10-24T01:35:22.053Z,0
2017-10-24T01:36:02.554Z,0
2017-10-24T01:36:43.068Z,0
2017-10-24T01:37:23.630Z,0
2017-10-24T01:38:04.100Z,0
2017-10-24T01:38:44.666Z,0
2017-10-24T01:39:25.249Z,0
2017-10-24T01:40:05.805Z,0
2017-10-24T01:40:46.276Z,0
2017-10-24T01:41:26.836Z,0
2017-10-24T01:42:07.372Z,0
2017-10-24T01:42:47.960Z,0
2017-10-24T01:43:28.549Z,0
2017-10-24T01:44:09.081Z,0
2017-10-24T01:44:49.601Z,0
2017-10-24T01:45:30.162Z,0
2017-10-24T01:46:10.682Z,0
2017-10-24T01:46:51.227Z,0
2017-10-24T01:47:31.769Z,0
2017-10-24T01:48:12.295Z,0
2017-10-24T01:48:52.813Z,0
2017-10-24T01:49:33.343Z,0
2017-10-24T01:50:13.942Z,0
2017-10-24T01:50:54.486Z,0
2017-10-24T01:51:34.984Z,0
2017-10-24T01:52:15.512Z,0
2017-10-24T01:52:56.042Z,0
2017-10-24T01:53:36.554Z,0
2017-10-24T01:54:17.084Z,0
2017-10-24T01:54:57.668Z,0
2017-10-24T01:55:38.182Z,0
2017-10-24T01:56:18.680Z,0
2017-10-24T01:56:59.207Z,0
2017-10-24T01:57:39.763Z,0
2017-10-24T01:58:20.312Z,0
2017-10-24T01:59:00.816Z,0
2017-10-24T01:59:41.294Z,0
2017-10-24T02:00:21.846Z,0
2017-10-24T02:01:02.376Z,0
2017-10-24T02:01:42.911Z,0
2017-10-24T02:02:23.428Z,0
2017-10-24T02:03:03.987Z,0
2017-10-24T02:03:44.520Z,0
2017-10-24T02:04:25.041Z,0
2017-10-24T02:05:05.570Z,0
2017-10-24T02:05:46.147Z,0
2017-10-24T02:06:26.691Z,0
2017-10-24T02:07:07.190Z,0
2017-10-24T02:07:47.777Z,0
2017-10-24T02:08:28.305Z,0
2017-10-24T02:09:08.796Z,0
2017-10-24T02:09:49.344Z,0
2017-10-24T02:10:29.920Z,0
2017-10-24T02:11:10.382Z,0
2017-10-24T02:11:50.917Z,0
2017-10-24T02:12:31.505Z,0
2017-10-24T02:13:12.039Z,0
2017-10-24T02:13:52.591Z,0
2017-10-24T02:14:33.143Z,0
2017-10-24T02:15:13.661Z,0
2017-10-24T02:15:54.145Z,0
2017-10-24T02:16:34.737Z,0
2017-10-24T02:17:15.242Z,0
2017-10-24T02:17:55.794Z,0
2017-10-24T02:18:36.288Z,0
2017-10-24T02:19:16.837Z,0
2017-10-24T02:19:57.330Z,0
2017-10-24T02:20:37.874Z,0
2017-10-24T02:21:18.409Z,0
2017-10-24T02:21:58.943Z,0
2017-10-24T02:22:39.515Z,0
2017-10-24T02:23:20.085Z,0
2017-10-24T02:24:00.614Z,0
2017-10-24T02:24:41.115Z,0
2017-10-24T02:25:21.660Z,0
2017-10-24T02:26:02.180Z,0
2017-10-24T02:26:42.703Z,0
2017-10-24T02:27:23.253Z,0
2017-10-24T02:28:03.737Z,0
2017-10-24T02:28:44.317Z,0
2017-10-24T02:29:24.891Z,0
2017-10-24T02:30:05.364Z,0
2017-10-24T02:30:45.921Z,0
2017-10-24T02:31:26.517Z,0
2017-10-24T02:32:07.012Z,0
2017-10-24T02:32:47.490Z,0
2017-10-24T02:33:28.020Z,0
2017-10-24T02:34:08.610Z,0
2017-10-24T02:34:49.175Z,0
2017-10-24T02:35:29.672Z,0
2017-10-24T02:36:10.226Z,0
2017-10-24T02:36:50.791Z,0
2017-10-24T02:37:31.331Z,0
2017-10-24T02:38:11.845Z,0
2017-10-24T02:38:52.446Z,0
2017-10-24T02:39:32.882Z,0
2017-10-24T02:40:13.442Z,0
2017-10-24T02:40:53.934Z,0
2017-10-24T02:41:34.440Z,0
2017-10-24T02:42:14.978Z,0
2017-10-24T02:42:55.526Z,0
2017-10-24T02:43:36.194Z,0
2017-10-24T02:44:16.756Z,0
2017-10-24T02:44:57.266Z,0
2017-10-24T02:45:37.784Z,0
2017-10-24T02:46:18.318Z,0
2017-10-24T02:46:58.902Z,0
2017-10-24T02:47:39.385Z,0
2017-10-24T02:48:19.945Z,0
2017-10-24T02:49:00.451Z,0
2017-10-24T02:49:40.996Z,0
2017-10-24T02:50:21.554Z,0
2017-10-24T02:51:02.108Z,0
2017-10-24T02:51:42.675Z,0
2017-10-24T02:52:23.194Z,0
2017-10-24T02:53:03.718Z,0
2017-10-24T02:53:44.284Z,0
2017-10-24T02:54:24.788Z,0
2017-10-24T02:55:05.316Z,0
2017-10-24T02:55:45.845Z,0
2017-10-24T02:56:26.389Z,0
2017-10-24T02:57:06.887Z,0
2017-10-24T02:57:47.454Z,0
2017-10-24T02:58:27.969Z,0
2017-10-24T02:59:08.500Z,0
2017-10-24T02:59:48.999Z,0
2017-10-24T03:00:29.542Z,0
2017-10-24T03:01:10.125Z,0
2017-10-24T03:01:50.641Z,0
2017-10-24T03:02:31.249Z,0
2017-10-24T03:03:11.846Z,0
2017-10-24T03:03:52.402Z,0
2017-10-24T03:04:32.928Z,0
2017-10-24T03:05:13.469Z,0
2017-10-24T03:05:53.998Z,0
2017-10-24T03:06:34.505Z,0
2017-10-24T03:07:15.057Z,0
2017-10-24T03:07:55.604Z,0
2017-10-24T03:08:36.109Z,0
2017-10-24T03:09:16.665Z,0
2017-10-24T03:09:57.223Z,0
2017-10-24T03:10:37.782Z,0
2017-10-24T03:11:18.287Z,0
2017-10-24T03:11:59.640Z,0
2017-10-24T03:12:40.210Z,0
2017-10-24T03:13:20.726Z,0
2017-10-24T03:14:01.224Z,0
2017-10-24T03:14:41.857Z,0
2017-10-24T03:15:22.413Z,0
2017-10-24T03:16:02.984Z,0
2017-10-24T03:16:43.490Z,0
2017-10-24T03:17:24.073Z,0
2017-10-24T03:18:04.579Z,0
2017-10-24T03:18:45.151Z,0
2017-10-24T03:19:25.710Z,0
2017-10-24T03:20:06.233Z,0
2017-10-24T03:20:46.744Z,0
2017-10-24T03:21:27.319Z,0
2017-10-24T03:22:07.818Z,0
2017-10-24T03:22:48.376Z,0
2017-10-24T03:23:28.917Z,0
2017-10-24T03:24:09.393Z,0
2017-10-24T03:24:49.981Z,0
2017-10-24T03:25:30.486Z,0
2017-10-24T03:26:11.004Z,0
2017-10-24T03:26:51.538Z,0
2017-10-24T03:27:32.035Z,0
2017-10-24T03:28:12.572Z,0
2017-10-24T03:28:53.110Z,0
2017-10-24T03:29:33.655Z,0
2017-10-24T03:30:14.131Z,0
2017-10-24T03:30:54.690Z,0
2017-10-24T03:31:35.222Z,0
2017-10-24T03:32:15.700Z,0
2017-10-24T03:32:56.239Z,0
2017-10-24T03:33:36.803Z,0
2017-10-24T03:34:17.311Z,0
2017-10-24T03:34:57.841Z,0
2017-10-24T03:35:38.361Z,0
2017-10-24T03:36:18.944Z,0
2017-10-24T03:36:59.411Z,0
2017-10-24T03:37:40.002Z,0
2017-10-24T03:38:20.561Z,0
2017-10-24T03:39:01.044Z,0
2017-10-24T03:39:41.576Z,0
2017-10-24T03:40:22.136Z,0
2017-10-24T03:41:02.627Z,0
2017-10-24T03:41:43.221Z,0
2017-10-24T03:42:23.755Z,0
2017-10-24T03:43:04.260Z,0
2017-10-24T03:43:44.806Z,0
2017-10-24T03:44:25.312Z,0
2017-10-24T03:45:05.857Z,0
2017-10-24T03:45:46.380Z,0
2017-10-24T03:46:26.929Z,0
2017-10-24T03:47:07.497Z,0
2017-10-24T03:47:47.989Z,0
2017-10-24T03:48:28.636Z,0
2017-10-24T03:49:09.135Z,0
2017-10-24T03:49:49.679Z,0
2017-10-24T03:50:30.208Z,0
2017-10-24T03:51:10.712Z,0
2017-10-24T03:51:51.253Z,0
2017-10-24T03:52:31.789Z,0
2017-10-24T03:53:12.324Z,0
2017-10-24T03:53:52.847Z,0
2017-10-24T03:54:33.383Z,0
2017-10-24T03:55:13.903Z,0
2017-10-24T03:55:54.420Z,0
2017-10-24T03:56:34.962Z,0
2017-10-24T03:57:15.480Z,0
2017-10-24T03:57:55.990Z,0
2017-10-24T03:58:36.551Z,0
2017-10-24T03:59:17.071Z,0
2017-10-24T03:59:57.632Z,0
2017-10-24T04:00:38.177Z,0
2017-10-24T04:01:18.684Z,0
2017-10-24T04:01:59.247Z,0
2017-10-24T04:02:39.821Z,0
2017-10-24T04:03:20.396Z,0
2017-10-24T04:04:00.903Z,0
2017-10-24T04:04:41.593Z,0
2017-10-24T04:05:21.986Z,0
2017-10-24T04:06:02.512Z,0
2017-10-24T04:06:43.034Z,0
2017-10-24T04:07:23.577Z,0
2017-10-24T04:08:04.117Z,0
2017-10-24T04:08:44.602Z,0
2017-10-24T04:09:25.203Z,0
2017-10-24T04:10:05.723Z,0
2017-10-24T04:10:46.244Z,0
2017-10-24T04:11:26.810Z,0
2017-10-24T04:12:07.282Z,0
2017-10-24T04:12:47.795Z,0
2017-10-24T04:13:28.307Z,0
2017-10-24T04:14:08.870Z,0
2017-10-24T04:14:49.371Z,0
2017-10-24T04:15:29.934Z,0
2017-10-24T04:16:10.472Z,0
2017-10-24T04:16:51.013Z,0
2017-10-24T04:17:31.554Z,0
2017-10-24T04:18:12.078Z,0
2017-10-24T04:18:52.573Z,0
2017-10-24T04:19:33.168Z,0
2017-10-24T04:20:13.653Z,0
2017-10-24T04:20:54.210Z,0
2017-10-24T04:21:34.754Z,0
2017-10-24T04:22:15.251Z,0
2017-10-24T04:22:55.776Z,0
2017-10-24T04:23:36.312Z,0
2017-10-24T04:24:16.869Z,0
2017-10-24T04:24:57.399Z,0
2017-10-24T04:25:37.928Z,0
2017-10-24T04:26:18.423Z,0
2017-10-24T04:26:58.975Z,0
2017-10-24T04:27:39.519Z,0
2017-10-24T04:28:20.067Z,0
2017-10-24T04:29:00.595Z,0
2017-10-24T04:29:41.117Z,0
2017-10-24T04:30:21.632Z,0
2017-10-24T04:31:02.190Z,0
2017-10-24T04:31:42.659Z,0
2017-10-24T04:32:23.241Z,0
2017-10-24T04:33:03.789Z,0
2017-10-24T04:33:44.341Z,0
2017-10-24T04:34:24.895Z,0
2017-10-24T04:35:05.394Z,0
2017-10-24T04:35:45.907Z,0
2017-10-24T04:36:26.506Z,0
2017-10-24T04:37:07.064Z,0
2017-10-24T04:37:47.550Z,0
2017-10-24T04:38:28.126Z,0
2017-10-24T04:39:08.663Z,0
2017-10-24T04:39:49.228Z,0
2017-10-24T04:40:29.796Z,0
2017-10-24T04:41:10.330Z,0
2017-10-24T04:41:50.940Z,0
2017-10-24T04:42:31.709Z,0
2017-10-24T04:43:11.990Z,0
2017-10-24T04:43:52.502Z,0
2017-10-24T04:44:33.047Z,0
2017-10-24T04:45:13.639Z,0
2017-10-24T04:45:54.134Z,0
2017-10-24T04:46:34.742Z,0
2017-10-24T04:47:15.265Z,0
2017-10-24T04:47:55.793Z,0
2017-10-24T04:48:36.376Z,0
2017-10-24T04:49:17.034Z,0
2017-10-24T04:49:57.424Z,0
2017-10-24T04:50:38.010Z,0
2017-10-24T04:51:18.664Z,0
2017-10-24T04:51:59.142Z,0
2017-10-24T04:52:39.672Z,0
2017-10-24T04:53:20.136Z,0
2017-10-24T04:54:00.720Z,0
2017-10-24T04:54:41.242Z,0
2017-10-24T04:55:21.809Z,0
2017-10-24T04:56:02.279Z,0
2017-10-24T04:56:42.789Z,0
2017-10-24T04:57:23.601Z,0
2017-10-24T04:58:04.017Z,0
2017-10-24T04:58:44.561Z,0
2017-10-24T04:59:25.125Z,0
2017-10-24T05:00:05.750Z,0
2017-10-24T05:00:46.286Z,0
2017-10-24T05:01:27.022Z,0
2017-10-24T05:02:07.562Z,0
2017-10-24T05:02:48.164Z,0
2017-10-24T05:05:02.449Z,0
2017-10-24T05:05:42.981Z,0
2017-10-24T05:06:23.498Z,0
2017-10-24T05:07:04.045Z,0
2017-10-24T05:07:44.795Z,0
2017-10-24T05:08:25.328Z,0
2017-10-24T05:09:05.880Z,0
2017-10-24T05:09:46.418Z,0
2017-10-24T05:10:27.204Z,0
2017-10-24T05:11:07.668Z,0
2017-10-24T05:11:48.263Z,0
2017-10-24T05:12:28.811Z,0
2017-10-24T05:13:09.328Z,0
2017-10-24T05:13:50.000Z,0
2017-10-24T05:14:30.393Z,0
2017-10-24T05:15:10.959Z,0
2017-10-24T05:15:51.478Z,0
2017-10-24T05:16:32.031Z,0
2017-10-24T05:17:12.516Z,0
2017-10-24T05:17:53.103Z,0
2017-10-24T05:18:33.595Z,0
2017-10-24T05:19:14.173Z,0
2017-10-24T05:19:54.717Z,0
2017-10-24T05:20:35.255Z,0
2017-10-24T05:21:15.813Z,0
2017-10-24T05:21:56.386Z,0
2017-10-24T05:22:36.823Z,0
2017-10-24T05:23:17.358Z,0
2017-10-24T05:23:57.903Z,0
2017-10-24T05:24:38.493Z,0
2017-10-24T05:25:19.030Z,0
2017-10-24T05:25:59.575Z,0
2017-10-24T05:26:40.071Z,0
2017-10-24T05:27:20.655Z,0
2017-10-24T05:28:01.190Z,0
2017-10-24T05:28:41.738Z,0
2017-10-24T05:29:22.263Z,0
2017-10-24T05:30:02.792Z,0
2017-10-24T05:30:43.295Z,0
2017-10-24T05:31:23.898Z,4
2017-10-24T05:32:04.382Z,4
2017-10-24T05:32:44.971Z,4
2017-10-24T05:33:25.483Z,4
2017-10-24T05:34:06.050Z,4
2017-10-24T05:34:46.586Z,0
2017-10-24T05:35:27.111Z,0
2017-10-24T05:36:07.634Z,4
2017-10-24T05:36:48.145Z,4
2017-10-24T05:37:28.639Z,4
2017-10-24T05:38:09.201Z,4
2017-10-24T05:38:49.890Z,4
2017-10-24T05:39:30.396Z,4
2017-10-24T05:40:10.937Z,4
2017-10-24T05:40:51.523Z,4
2017-10-24T05:41:32.014Z,4
2017-10-24T05:42:12.557Z,8
2017-10-24T05:42:53.047Z,8
2017-10-24T05:43:33.627Z,8
2017-10-24T05:44:14.180Z,8
2017-10-24T05:44:54.702Z,12
2017-10-24T05:45:35.250Z,12
2017-10-24T05:46:15.759Z,12
2017-10-24T05:46:56.310Z,12
2017-10-24T05:47:36.807Z,16
2017-10-24T05:48:17.337Z,16
2017-10-24T05:48:57.948Z,20
2017-10-24T05:49:38.496Z,20
2017-10-24T05:50:19.013Z,24
2017-10-24T05:50:59.573Z,24
2017-10-24T05:51:40.131Z,24
2017-10-24T05:52:20.646Z,28
2017-10-24T05:53:01.177Z,32
2017-10-24T05:53:41.746Z,32
2017-10-24T05:54:22.245Z,36
2017-10-24T05:55:02.798Z,40
2017-10-24T05:55:43.357Z,44
2017-10-24T05:56:23.875Z,44
2017-10-24T05:57:04.415Z,48
2017-10-24T05:57:44.991Z,52
2017-10-24T05:58:25.519Z,60
2017-10-24T05:59:06.057Z,64
2017-10-24T05:59:46.551Z,72
2017-10-24T06:00:27.094Z,76
2017-10-24T06:01:07.610Z,84
2017-10-24T06:01:48.167Z,88
2017-10-24T06:02:28.726Z,92
2017-10-24T06:03:09.258Z,104
2017-10-24T06:03:49.832Z,108
2017-10-24T06:04:30.366Z,120
2017-10-24T06:05:10.950Z,124
2017-10-24T06:05:51.542Z,132
2017-10-24T06:06:32.146Z,144
2017-10-24T06:07:12.633Z,148
2017-10-24T06:07:53.155Z,160
2017-10-24T06:08:33.692Z,164
2017-10-24T06:09:14.295Z,164
2017-10-24T06:09:54.770Z,172
2017-10-24T06:10:35.338Z,184
2017-10-24T06:11:15.884Z,196
2017-10-24T06:11:56.389Z,208
2017-10-24T06:12:36.978Z,228
2017-10-24T06:13:17.531Z,240
2017-10-24T06:13:58.061Z,256
2017-10-24T06:14:38.560Z,272
2017-10-24T06:15:19.082Z,292
2017-10-24T06:15:59.658Z,312
2017-10-24T06:16:40.203Z,328
2017-10-24T06:17:20.748Z,344
2017-10-24T06:18:01.292Z,360
2017-10-24T06:18:41.910Z,384
2017-10-24T06:19:22.410Z,404
2017-10-24T06:20:02.974Z,428
2017-10-24T06:20:43.502Z,448
2017-10-24T06:21:24.015Z,460
2017-10-24T06:22:04.522Z,476
2017-10-24T06:22:45.068Z,492
2017-10-24T06:23:25.589Z,504
2017-10-24T06:24:06.158Z,516
2017-10-24T06:24:46.711Z,524
2017-10-24T06:25:27.239Z,528
2017-10-24T06:26:07.806Z,528
2017-10-24T06:26:48.319Z,528
2017-10-24T06:27:28.863Z,524
2017-10-24T06:28:09.430Z,528
2017-10-24T06:28:49.983Z,540
2017-10-24T06:29:30.792Z,556
2017-10-24T06:30:11.861Z,564
2017-10-24T06:30:52.414Z,564
2017-10-24T06:31:33.434Z,568
2017-10-24T06:34:02.576Z,644
2017-10-24T06:34:43.108Z,672
2017-10-24T06:35:23.659Z,680
2017-10-24T06:36:04.248Z,688
2017-10-24T06:36:44.789Z,688
2017-10-24T06:37:25.370Z,684
2017-10-24T06:38:05.951Z,680
2017-10-24T06:38:46.735Z,676
2017-10-24T06:39:27.678Z,680
2017-10-24T06:40:08.237Z,680
2017-10-24T06:40:48.763Z,680
2017-10-24T06:41:29.276Z,672
2017-10-24T06:42:09.800Z,664
2017-10-24T06:42:50.430Z,660
2017-10-24T06:43:31.028Z,656
2017-10-24T06:44:11.441Z,660
2017-10-24T06:44:51.989Z,668
2017-10-24T06:45:32.525Z,684
2017-10-24T06:46:13.167Z,704
2017-10-24T06:46:53.719Z,728
2017-10-24T06:47:34.302Z,756
2017-10-24T06:48:14.860Z,776
2017-10-24T06:48:55.363Z,776
2017-10-24T06:49:35.921Z,768
2017-10-24T06:50:16.458Z,752
2017-10-24T06:50:57.003Z,744
2017-10-24T06:51:37.499Z,764
2017-10-24T06:52:18.065Z,816
2017-10-24T06:52:58.587Z,844
2017-10-24T06:53:39.118Z,840
2017-10-24T06:54:19.671Z,864
2017-10-24T06:55:00.249Z,936
2017-10-24T06:55:40.776Z,976
2017-10-24T06:56:21.305Z,976
2017-10-24T06:57:01.830Z,972
2017-10-24T06:57:42.367Z,1020
2017-10-24T06:58:22.867Z,1088
2017-10-24T06:59:03.416Z,1124
2017-10-24T06:59:43.969Z,1132
2017-10-24T07:00:24.516Z,1148
2017-10-24T07:01:05.063Z,1192
2017-10-24T07:01:45.608Z,1244
2017-10-24T07:02:26.140Z,1312
2017-10-24T07:03:06.760Z,1372
2017-10-24T07:03:47.243Z,1412
2017-10-24T07:04:27.831Z,1436
2017-10-24T07:05:08.342Z,1444
2017-10-24T07:05:48.887Z,1424
2017-10-24T07:06:29.400Z,1440
2017-10-24T07:07:09.970Z,1500
2017-10-24T07:07:50.546Z,1544
2017-10-24T07:08:31.072Z,1564
2017-10-24T07:09:11.625Z,1636
2017-10-24T07:09:52.149Z,1704
2017-10-24T07:10:32.689Z,1788
2017-10-24T07:11:13.254Z,1876
2017-10-24T07:11:53.801Z,1968
2017-10-24T07:12:34.356Z,2048
2017-10-24T07:13:14.917Z,2112
2017-10-24T07:13:55.513Z,2148
2017-10-24T07:14:36.013Z,2220
2017-10-24T07:15:16.574Z,2292
2017-10-24T07:15:57.130Z,2372
2017-10-24T07:16:37.681Z,2444
2017-10-24T07:17:18.272Z,2480
2017-10-24T07:17:58.796Z,2540
2017-10-24T07:18:39.355Z,2584
2017-10-24T07:19:19.905Z,2628
2017-10-24T07:20:00.445Z,2684
2017-10-24T07:20:41.041Z,2780
2017-10-24T07:21:21.689Z,2900
2017-10-24T07:22:02.160Z,3036
2017-10-24T07:22:42.712Z,3148
2017-10-24T07:23:23.233Z,3204
2017-10-24T07:24:03.770Z,3156
2017-10-24T07:24:44.339Z,3076
2017-10-24T07:25:24.860Z,2964
2017-10-24T07:26:05.398Z,2872
2017-10-24T07:26:45.950Z,2760
2017-10-24T07:27:26.493Z,2628
2017-10-24T07:28:07.034Z,2536
2017-10-24T07:28:47.738Z,2492
2017-10-24T07:29:28.291Z,2464
2017-10-24T07:30:08.812Z,2464
2017-10-24T07:30:49.314Z,2480
2017-10-24T07:31:29.860Z,2516
2017-10-24T07:32:10.411Z,2576
2017-10-24T07:32:50.961Z,2628
2017-10-24T07:33:31.469Z,2680
2017-10-24T07:34:12.046Z,2752
2017-10-24T07:34:52.601Z,2792
2017-10-24T07:35:33.101Z,2820
2017-10-24T07:36:13.636Z,2816
2017-10-24T07:36:54.166Z,2756
2017-10-24T07:37:34.635Z,2724
2017-10-24T07:38:15.194Z,2712
2017-10-24T07:38:55.781Z,2680
2017-10-24T07:39:36.298Z,2596
2017-10-24T07:40:16.848Z,2520
2017-10-24T07:40:57.404Z,2532
2017-10-24T07:41:37.938Z,2528
2017-10-24T07:42:18.517Z,2496
2017-10-24T07:42:59.120Z,2460
2017-10-24T07:43:39.583Z,2420
2017-10-24T07:44:20.164Z,2404
2017-10-24T07:45:00.674Z,2360
2017-10-24T07:45:41.454Z,2320
2017-10-24T07:46:22.135Z,2268
2017-10-24T07:47:02.589Z,2164
2017-10-24T07:47:43.181Z,2088
2017-10-24T07:48:23.749Z,2080
2017-10-24T07:49:04.437Z,2068
2017-10-24T07:49:44.871Z,2052
2017-10-24T07:50:25.415Z,2016
2017-10-24T07:51:05.976Z,2028
2017-10-24T07:51:46.576Z,2044
2017-10-24T07:52:27.132Z,2080
2017-10-24T07:53:07.699Z,2140
2017-10-24T07:53:48.197Z,2240
2017-10-24T07:54:28.739Z,2352
2017-10-24T07:55:09.298Z,2412
2017-10-24T07:55:49.844Z,2476
2017-10-24T07:56:30.370Z,2476
2017-10-24T07:57:10.920Z,2420
2017-10-24T07:57:51.445Z,2408
2017-10-24T07:58:31.983Z,2424
2017-10-24T07:59:12.455Z,2416
2017-10-24T07:59:53.060Z,2372
2017-10-24T08:00:33.599Z,2360
2017-10-24T08:01:14.096Z,2324
2017-10-24T08:01:54.655Z,2296
2017-10-24T08:02:35.152Z,2308
2017-10-24T08:03:15.702Z,2348
2017-10-24T08:03:56.273Z,2416
2017-10-24T08:04:36.818Z,2512
2017-10-24T08:05:17.343Z,2524
2017-10-24T08:05:57.965Z,2504
2017-10-24T08:06:38.461Z,2500
2017-10-24T08:07:19.053Z,2524
2017-10-24T08:07:59.563Z,2552
2017-10-24T08:08:40.111Z,2560
2017-10-24T08:09:20.609Z,2556
2017-10-24T08:10:01.148Z,2576
2017-10-24T08:10:41.761Z,2644
2017-10-24T08:11:22.402Z,2720
2017-10-24T08:12:03.172Z,2780
2017-10-24T08:12:43.827Z,2788
2017-10-24T08:13:25.277Z,2732
2017-10-24T08:14:05.809Z,2700
2017-10-24T08:14:46.346Z,2696
2017-10-24T08:15:26.841Z,2700
2017-10-24T08:16:07.438Z,2716
2017-10-24T08:16:47.942Z,2720
2017-10-24T08:17:28.486Z,2680
2017-10-24T08:18:09.006Z,2668
2017-10-24T08:18:49.580Z,2668
2017-10-24T08:19:30.111Z,2696
2017-10-24T08:20:10.615Z,2744
2017-10-24T08:20:51.183Z,2776
2017-10-24T08:21:31.709Z,2832
2017-10-24T08:22:12.305Z,2800
2017-10-24T08:22:52.997Z,2744
2017-10-24T08:23:33.543Z,2720
2017-10-24T08:24:14.059Z,2740
2017-10-24T08:24:54.640Z,2776
2017-10-24T08:25:35.163Z,2788
2017-10-24T08:26:15.743Z,2772
2017-10-24T08:26:56.233Z,2772
2017-10-24T08:27:36.766Z,2812
2017-10-24T08:28:17.343Z,2876
2017-10-24T08:28:57.855Z,2924
2017-10-24T08:29:38.364Z,2944
2017-10-24T08:30:18.922Z,2944
2017-10-24T08:30:59.475Z,2880
2017-10-24T08:31:39.983Z,2864
2017-10-24T08:32:20.520Z,2896
2017-10-24T08:33:01.092Z,2952
2017-10-24T08:33:41.646Z,2980
2017-10-24T08:34:22.151Z,2892
2017-10-24T08:35:02.683Z,2952
2017-10-24T08:35:43.247Z,3080
2017-10-24T08:36:23.717Z,3172
2017-10-24T08:37:04.262Z,3224
2017-10-24T08:37:44.785Z,3260
2017-10-24T08:38:25.349Z,3296
2017-10-24T08:39:05.953Z,3356
2017-10-24T08:39:46.438Z,3448
2017-10-24T08:40:27.005Z,3524
2017-10-24T08:41:07.480Z,3584
2017-10-24T08:41:48.023Z,3584
2017-10-24T08:42:28.583Z,3592
2017-10-24T08:43:09.061Z,3704
2017-10-24T08:43:49.616Z,3896
2017-10-24T08:44:30.140Z,4096
2017-10-24T08:45:10.702Z,4172
2017-10-24T08:45:51.233Z,4036
2017-10-24T08:46:31.770Z,3756
2017-10-24T08:47:12.292Z,3424
2017-10-24T08:47:52.857Z,3060
2017-10-24T08:48:33.423Z,2824
2017-10-24T08:49:13.951Z,2756
2017-10-24T08:49:54.507Z,2724
2017-10-24T08:50:34.996Z,2732
2017-10-24T08:51:15.620Z,2708
2017-10-24T08:51:56.114Z,2688
2017-10-24T08:52:36.629Z,2652
2017-10-24T08:53:17.223Z,2672
2017-10-24T08:53:57.774Z,2704
2017-10-24T08:54:38.335Z,2664
2017-10-24T08:55:18.860Z,2692
2017-10-24T08:55:59.392Z,2776
2017-10-24T08:56:39.922Z,2812
2017-10-24T08:57:20.511Z,2840
2017-10-24T08:58:01.045Z,2816
2017-10-24T08:58:41.599Z,2780
2017-10-24T08:59:22.118Z,2752
2017-10-24T09:00:02.682Z,2820
2017-10-24T09:00:43.214Z,2868
2017-10-24T09:01:23.788Z,2876
2017-10-24T09:02:04.603Z,2888
2017-10-24T09:02:45.103Z,2928
2017-10-24T09:03:25.660Z,2980
2017-10-24T09:04:06.266Z,3000
2017-10-24T09:04:46.796Z,3000
2017-10-24T09:05:27.353Z,3004
2017-10-24T09:06:07.885Z,2996
2017-10-24T09:06:48.387Z,2984
2017-10-24T09:07:28.966Z,2944
2017-10-24T09:08:09.472Z,2888
2017-10-24T09:08:49.978Z,2888
2017-10-24T09:09:30.519Z,2888
2017-10-24T09:12:04.136Z,2976
2017-10-24T09:12:44.806Z,3048
2017-10-24T09:13:25.318Z,3096
2017-10-24T09:14:05.848Z,3116
2017-10-24T09:14:46.429Z,3116
2017-10-24T09:15:26.978Z,3160
2017-10-24T09:16:07.475Z,3200
2017-10-24T09:16:48.005Z,3256
2017-10-24T09:17:28.562Z,3304
2017-10-24T09:18:09.076Z,3364
2017-10-24T09:18:49.618Z,3412
2017-10-24T09:19:30.156Z,3500
2017-10-24T09:20:10.725Z,3524
2017-10-24T09:20:51.317Z,3548
2017-10-24T09:21:31.825Z,3572
2017-10-24T09:22:12.391Z,3632
2017-10-24T09:22:52.957Z,3660
2017-10-24T09:23:33.515Z,3716
2017-10-24T09:24:14.038Z,3816
2017-10-24T09:24:54.575Z,3900
2017-10-24T09:25:35.127Z,3964
2017-10-24T09:26:15.646Z,3960
2017-10-24T09:26:56.190Z,3912
2017-10-24T09:27:36.763Z,3880
2017-10-24T09:28:17.316Z,3836
2017-10-24T09:28:57.791Z,3828
2017-10-24T09:29:38.680Z,3872
2017-10-24T09:30:19.201Z,3880
2017-10-24T09:30:59.758Z,3900
2017-10-24T09:31:40.334Z,3892
2017-10-24T09:32:20.862Z,3900
2017-10-24T09:33:01.413Z,3888
2017-10-24T09:33:41.960Z,3880
2017-10-24T09:34:22.522Z,3888
2017-10-24T09:35:03.068Z,3904
2017-10-24T09:35:43.603Z,3908
2017-10-24T09:36:24.136Z,3912
2017-10-24T09:37:04.676Z,3896
2017-10-24T09:37:45.217Z,3912
2017-10-24T09:38:25.776Z,3888
2017-10-24T09:39:06.287Z,3840
2017-10-24T09:39:46.833Z,3800
2017-10-24T09:40:27.411Z,3812
2017-10-24T09:41:07.937Z,3788
2017-10-24T09:41:48.464Z,3760